sensor_id;sensor_type;location;lat;lon;timestamp;temperature;humidity
22974;DHT22;11653;50.848;4.584;2023-04-30T00:00:13;9.90;99.90
22974;DHT22;11653;50.848;4.584;2023-04-30T00:02:39;9.90;99.90
22974;DHT22;11653;50.848;4.584;2023-04-30T00:05:05;9.80;99.90
22974;DHT22;11653;50.848;4.584;2023-04-30T00:07:31;9.80;99.90
22974;DHT22;11653;50.848;4.584;2023-04-30T00:09:56;9.70;99.90
22974;DHT22;11653;50.848;4.584;2023-04-30T00:12:22;9.80;99.90
22974;DHT22;11653;50.848;4.584;2023-04-30T00:14:48;9.70;99.90
22974;DHT22;11653;50.848;4.584;2023-04-30T00:17:14;9.80;99.90
22974;DHT22;11653;50.848;4.584;2023-04-30T00:19:41;9.70;99.90
22974;DHT22;11653;50.848;4.584;2023-04-30T00:22:07;9.70;99.90
22974;DHT22;11653;50.848;4.584;2023-04-30T00:24:33;9.60;99.90
22974;DHT22;11653;50.848;4.584;2023-04-30T00:26:59;9.60;99.90
22974;DHT22;11653;50.848;4.584;2023-04-30T00:29:24;9.60;99.90
22974;DHT22;11653;50.848;4.584;2023-04-30T00:31:50;9.50;99.90
22974;DHT22;11653;50.848;4.584;2023-04-30T00:34:16;9.50;99.90
22974;DHT22;11653;50.848;4.584;2023-04-30T00:36:41;9.50;99.90
22974;DHT22;11653;50.848;4.584;2023-04-30T00:39:07;9.40;99.90
22974;DHT22;11653;50.848;4.584;2023-04-30T00:41:34;9.40;99.90
22974;DHT22;11653;50.848;4.584;2023-04-30T00:44:00;9.40;99.90
22974;DHT22;11653;50.848;4.584;2023-04-30T00:46:29;9.30;99.90
22974;DHT22;11653;50.848;4.584;2023-04-30T00:48:55;9.30;99.90
22974;DHT22;11653;50.848;4.584;2023-04-30T00:51:20;9.30;99.90
22974;DHT22;11653;50.848;4.584;2023-04-30T00:53:47;9.20;99.90
22974;DHT22;11653;50.848;4.584;2023-04-30T00:56:13;9.20;99.90
22974;DHT22;11653;50.848;4.584;2023-04-30T00:58:42;9.10;99.90
22974;DHT22;11653;50.848;4.584;2023-04-30T01:01:08;9.20;99.90
22974;DHT22;11653;50.848;4.584;2023-04-30T01:03:34;9.10;99.90
22974;DHT22;11653;50.848;4.584;2023-04-30T01:06:02;9.00;99.90
22974;DHT22;11653;50.848;4.584;2023-04-30T01:08:31;8.90;99.90
22974;DHT22;11653;50.848;4.584;2023-04-30T01:11:11;8.90;99.90
22974;DHT22;11653;50.848;4.584;2023-04-30T01:14:04;8.90;99.90
22974;DHT22;11653;50.848;4.584;2023-04-30T01:16:39;8.80;99.90
22974;DHT22;11653;50.848;4.584;2023-04-30T01:21:50;8.70;99.90
22974;DHT22;11653;50.848;4.584;2023-04-30T01:24:32;8.70;99.90
22974;DHT22;11653;50.848;4.584;2023-04-30T01:29:55;8.50;99.90
22974;DHT22;11653;50.848;4.584;2023-04-30T01:32:22;8.50;99.90
22974;DHT22;11653;50.848;4.584;2023-04-30T01:34:47;8.40;99.90
22974;DHT22;11653;50.848;4.584;2023-04-30T01:40:23;8.40;99.90
22974;DHT22;11653;50.848;4.584;2023-04-30T01:51:29;8.20;99.90
22974;DHT22;11653;50.848;4.584;2023-04-30T01:54:02;8.20;99.90
22974;DHT22;11653;50.848;4.584;2023-04-30T01:56:38;8.20;99.90
22974;DHT22;11653;50.848;4.584;2023-04-30T01:59:06;8.10;99.90
22974;DHT22;11653;50.848;4.584;2023-04-30T02:01:32;8.10;99.90
22974;DHT22;11653;50.848;4.584;2023-04-30T02:03:59;8.10;99.90
22974;DHT22;11653;50.848;4.584;2023-04-30T02:06:25;8.00;99.90
22974;DHT22;11653;50.848;4.584;2023-04-30T02:08:53;8.00;99.90
22974;DHT22;11653;50.848;4.584;2023-04-30T02:11:19;8.00;99.90
22974;DHT22;11653;50.848;4.584;2023-04-30T02:13:45;8.00;99.90
22974;DHT22;11653;50.848;4.584;2023-04-30T02:16:11;8.00;99.90
22974;DHT22;11653;50.848;4.584;2023-04-30T02:18:37;7.90;99.90
22974;DHT22;11653;50.848;4.584;2023-04-30T02:21:02;7.90;99.90
22974;DHT22;11653;50.848;4.584;2023-04-30T02:23:28;7.80;99.90
22974;DHT22;11653;50.848;4.584;2023-04-30T02:25:54;7.80;99.90
22974;DHT22;11653;50.848;4.584;2023-04-30T02:28:19;7.80;99.90
22974;DHT22;11653;50.848;4.584;2023-04-30T02:30:45;7.80;99.90
22974;DHT22;11653;50.848;4.584;2023-04-30T02:33:11;7.70;99.90
22974;DHT22;11653;50.848;4.584;2023-04-30T02:35:38;7.70;99.90
22974;DHT22;11653;50.848;4.584;2023-04-30T02:38:05;7.70;99.90
22974;DHT22;11653;50.848;4.584;2023-04-30T02:40:31;7.60;99.90
22974;DHT22;11653;50.848;4.584;2023-04-30T02:42:56;7.50;99.90
22974;DHT22;11653;50.848;4.584;2023-04-30T02:45:22;7.50;99.90
22974;DHT22;11653;50.848;4.584;2023-04-30T02:47:48;7.50;99.90
22974;DHT22;11653;50.848;4.584;2023-04-30T02:50:13;7.50;99.90
22974;DHT22;11653;50.848;4.584;2023-04-30T02:52:39;7.50;99.90
22974;DHT22;11653;50.848;4.584;2023-04-30T02:55:05;7.40;99.90
22974;DHT22;11653;50.848;4.584;2023-04-30T02:57:31;7.40;99.90
22974;DHT22;11653;50.848;4.584;2023-04-30T02:59:57;7.40;99.90
22974;DHT22;11653;50.848;4.584;2023-04-30T03:02:22;7.40;99.90
22974;DHT22;11653;50.848;4.584;2023-04-30T03:04:48;7.40;99.90
22974;DHT22;11653;50.848;4.584;2023-04-30T03:07:15;7.40;99.90
22974;DHT22;11653;50.848;4.584;2023-04-30T03:09:42;7.30;99.90
22974;DHT22;11653;50.848;4.584;2023-04-30T03:12:08;7.30;99.90
22974;DHT22;11653;50.848;4.584;2023-04-30T03:14:34;7.30;99.90
22974;DHT22;11653;50.848;4.584;2023-04-30T03:16:59;7.20;99.90
22974;DHT22;11653;50.848;4.584;2023-04-30T03:19:25;7.20;99.90
22974;DHT22;11653;50.848;4.584;2023-04-30T03:21:51;7.20;99.90
22974;DHT22;11653;50.848;4.584;2023-04-30T03:24:17;7.10;99.90
22974;DHT22;11653;50.848;4.584;2023-04-30T03:26:44;7.10;99.90
22974;DHT22;11653;50.848;4.584;2023-04-30T03:29:10;7.00;99.90
22974;DHT22;11653;50.848;4.584;2023-04-30T03:31:35;7.00;99.90
22974;DHT22;11653;50.848;4.584;2023-04-30T03:34:01;7.10;99.90
22974;DHT22;11653;50.848;4.584;2023-04-30T03:36:26;7.00;99.90
22974;DHT22;11653;50.848;4.584;2023-04-30T03:38:52;7.00;99.90
22974;DHT22;11653;50.848;4.584;2023-04-30T03:41:18;7.00;99.90
22974;DHT22;11653;50.848;4.584;2023-04-30T03:43:44;7.00;99.90
22974;DHT22;11653;50.848;4.584;2023-04-30T03:46:10;7.00;99.90
22974;DHT22;11653;50.848;4.584;2023-04-30T03:48:35;7.00;99.90
22974;DHT22;11653;50.848;4.584;2023-04-30T03:51:01;7.00;99.90
22974;DHT22;11653;50.848;4.584;2023-04-30T03:53:27;6.90;99.90
22974;DHT22;11653;50.848;4.584;2023-04-30T03:55:53;6.80;99.90
22974;DHT22;11653;50.848;4.584;2023-04-30T03:58:19;6.80;99.90
22974;DHT22;11653;50.848;4.584;2023-04-30T04:00:46;6.70;99.90
22974;DHT22;11653;50.848;4.584;2023-04-30T04:03:13;6.70;99.90
22974;DHT22;11653;50.848;4.584;2023-04-30T04:05:39;6.70;99.90
22974;DHT22;11653;50.848;4.584;2023-04-30T04:08:05;6.70;99.90
22974;DHT22;11653;50.848;4.584;2023-04-30T04:10:31;6.60;99.90
22974;DHT22;11653;50.848;4.584;2023-04-30T04:12:57;6.60;99.90
22974;DHT22;11653;50.848;4.584;2023-04-30T04:15:23;6.70;99.90
22974;DHT22;11653;50.848;4.584;2023-04-30T04:17:48;6.60;99.90
22974;DHT22;11653;50.848;4.584;2023-04-30T04:20:14;6.60;99.90
22974;DHT22;11653;50.848;4.584;2023-04-30T04:22:39;6.60;99.90
22974;DHT22;11653;50.848;4.584;2023-04-30T04:25:05;6.60;99.90
22974;DHT22;11653;50.848;4.584;2023-04-30T04:27:31;6.50;99.90
22974;DHT22;11653;50.848;4.584;2023-04-30T04:29:57;6.60;99.90
22974;DHT22;11653;50.848;4.584;2023-04-30T04:32:23;6.60;99.90
22974;DHT22;11653;50.848;4.584;2023-04-30T04:34:49;6.60;99.90
22974;DHT22;11653;50.848;4.584;2023-04-30T04:37:14;6.60;99.90
22974;DHT22;11653;50.848;4.584;2023-04-30T04:39:41;6.60;99.90
22974;DHT22;11653;50.848;4.584;2023-04-30T04:42:07;6.60;99.90
22974;DHT22;11653;50.848;4.584;2023-04-30T04:44:33;6.60;99.90
22974;DHT22;11653;50.848;4.584;2023-04-30T04:47:00;6.60;99.90
22974;DHT22;11653;50.848;4.584;2023-04-30T04:49:27;6.60;99.90
22974;DHT22;11653;50.848;4.584;2023-04-30T04:51:53;6.70;99.90
22974;DHT22;11653;50.848;4.584;2023-04-30T04:54:18;6.80;99.90
22974;DHT22;11653;50.848;4.584;2023-04-30T04:56:44;6.80;99.90
22974;DHT22;11653;50.848;4.584;2023-04-30T04:59:10;6.80;99.90
22974;DHT22;11653;50.848;4.584;2023-04-30T05:01:35;6.90;99.90
22974;DHT22;11653;50.848;4.584;2023-04-30T05:04:01;7.10;99.90
22974;DHT22;11653;50.848;4.584;2023-04-30T05:06:27;7.20;99.90
22974;DHT22;11653;50.848;4.584;2023-04-30T05:08:53;7.40;99.90
22974;DHT22;11653;50.848;4.584;2023-04-30T05:11:18;7.70;99.90
22974;DHT22;11653;50.848;4.584;2023-04-30T05:13:44;8.00;99.90
22974;DHT22;11653;50.848;4.584;2023-04-30T05:16:09;8.40;99.90
22974;DHT22;11653;50.848;4.584;2023-04-30T05:18:35;8.80;99.90
22974;DHT22;11653;50.848;4.584;2023-04-30T05:21:01;9.20;99.90
22974;DHT22;11653;50.848;4.584;2023-04-30T05:23:26;9.60;99.90
22974;DHT22;11653;50.848;4.584;2023-04-30T05:25:52;10.00;99.90
22974;DHT22;11653;50.848;4.584;2023-04-30T05:28:19;10.40;99.90
22974;DHT22;11653;50.848;4.584;2023-04-30T05:30:45;10.80;99.90
22974;DHT22;11653;50.848;4.584;2023-04-30T05:33:10;11.10;99.90
22974;DHT22;11653;50.848;4.584;2023-04-30T05:35:36;11.50;99.90
22974;DHT22;11653;50.848;4.584;2023-04-30T05:38:02;11.90;99.90
22974;DHT22;11653;50.848;4.584;2023-04-30T05:40:28;12.30;99.90
22974;DHT22;11653;50.848;4.584;2023-04-30T05:42:54;12.70;99.90
22974;DHT22;11653;50.848;4.584;2023-04-30T05:45:20;13.10;99.90
22974;DHT22;11653;50.848;4.584;2023-04-30T05:47:46;13.40;99.90
22974;DHT22;11653;50.848;4.584;2023-04-30T05:50:11;13.90;99.90
22974;DHT22;11653;50.848;4.584;2023-04-30T05:52:37;14.30;99.90
22974;DHT22;11653;50.848;4.584;2023-04-30T05:55:03;14.70;99.90
22974;DHT22;11653;50.848;4.584;2023-04-30T05:57:29;15.30;99.90
22974;DHT22;11653;50.848;4.584;2023-04-30T05:59:55;15.70;99.90
22974;DHT22;11653;50.848;4.584;2023-04-30T06:02:21;15.80;99.90
22974;DHT22;11653;50.848;4.584;2023-04-30T06:04:47;16.10;99.90
22974;DHT22;11653;50.848;4.584;2023-04-30T06:07:13;16.20;99.90
22974;DHT22;11653;50.848;4.584;2023-04-30T06:09:38;16.50;99.90
22974;DHT22;11653;50.848;4.584;2023-04-30T06:12:04;16.70;99.90
22974;DHT22;11653;50.848;4.584;2023-04-30T06:14:30;16.90;99.90
22974;DHT22;11653;50.848;4.584;2023-04-30T06:16:56;17.00;99.90
22974;DHT22;11653;50.848;4.584;2023-04-30T06:19:21;17.10;99.90
22974;DHT22;11653;50.848;4.584;2023-04-30T06:21:47;17.20;99.90
22974;DHT22;11653;50.848;4.584;2023-04-30T06:24:13;17.40;99.90
22974;DHT22;11653;50.848;4.584;2023-04-30T06:26:38;17.20;99.90
22974;DHT22;11653;50.848;4.584;2023-04-30T06:29:04;17.10;99.90
22974;DHT22;11653;50.848;4.584;2023-04-30T06:31:30;17.10;99.90
22974;DHT22;11653;50.848;4.584;2023-04-30T06:33:56;17.30;99.90
22974;DHT22;11653;50.848;4.584;2023-04-30T06:36:21;17.60;99.90
22974;DHT22;11653;50.848;4.584;2023-04-30T06:38:47;17.90;99.90
22974;DHT22;11653;50.848;4.584;2023-04-30T06:41:13;18.00;99.90
22974;DHT22;11653;50.848;4.584;2023-04-30T06:43:40;18.30;99.90
22974;DHT22;11653;50.848;4.584;2023-04-30T06:46:06;18.60;99.90
22974;DHT22;11653;50.848;4.584;2023-04-30T06:48:32;18.80;99.90
22974;DHT22;11653;50.848;4.584;2023-04-30T06:50:57;18.70;99.90
22974;DHT22;11653;50.848;4.584;2023-04-30T06:53:23;19.00;99.90
22974;DHT22;11653;50.848;4.584;2023-04-30T06:55:50;19.20;99.90
22974;DHT22;11653;50.848;4.584;2023-04-30T06:58:16;19.70;99.90
22974;DHT22;11653;50.848;4.584;2023-04-30T07:00:43;20.20;98.70
22974;DHT22;11653;50.848;4.584;2023-04-30T07:03:08;20.00;97.80
22974;DHT22;11653;50.848;4.584;2023-04-30T07:05:34;20.20;97.60
22974;DHT22;11653;50.848;4.584;2023-04-30T07:08:01;20.30;97.50
22974;DHT22;11653;50.848;4.584;2023-04-30T07:10:27;20.60;97.10
22974;DHT22;11653;50.848;4.584;2023-04-30T07:12:53;20.70;96.50
22974;DHT22;11653;50.848;4.584;2023-04-30T07:15:19;21.10;95.70
22974;DHT22;11653;50.848;4.584;2023-04-30T07:17:45;21.70;95.50
22974;DHT22;11653;50.848;4.584;2023-04-30T07:20:11;22.00;93.60
22974;DHT22;11653;50.848;4.584;2023-04-30T07:22:39;22.10;93.20
22974;DHT22;11653;50.848;4.584;2023-04-30T07:25:05;21.80;92.80
22974;DHT22;11653;50.848;4.584;2023-04-30T07:27:31;21.40;93.30
22974;DHT22;11653;50.848;4.584;2023-04-30T07:29:57;21.40;93.80
22974;DHT22;11653;50.848;4.584;2023-04-30T07:32:22;21.30;93.40
22974;DHT22;11653;50.848;4.584;2023-04-30T07:34:52;20.60;94.40
22974;DHT22;11653;50.848;4.584;2023-04-30T07:37:18;20.70;94.80
22974;DHT22;11653;50.848;4.584;2023-04-30T07:39:43;20.70;94.70
22974;DHT22;11653;50.848;4.584;2023-04-30T07:42:09;20.60;95.10
22974;DHT22;11653;50.848;4.584;2023-04-30T07:44:35;20.50;95.20
22974;DHT22;11653;50.848;4.584;2023-04-30T07:47:00;21.00;95.20
22974;DHT22;11653;50.848;4.584;2023-04-30T07:49:27;21.50;94.10
22974;DHT22;11653;50.848;4.584;2023-04-30T07:51:53;22.30;93.00
22974;DHT22;11653;50.848;4.584;2023-04-30T07:54:19;23.00;92.00
22974;DHT22;11653;50.848;4.584;2023-04-30T07:56:45;22.70;92.00
22974;DHT22;11653;50.848;4.584;2023-04-30T07:59:13;23.20;91.20
22974;DHT22;11653;50.848;4.584;2023-04-30T08:01:39;23.50;90.40
22974;DHT22;11653;50.848;4.584;2023-04-30T08:04:04;24.00;89.20
22974;DHT22;11653;50.848;4.584;2023-04-30T08:06:31;24.20;87.80
22974;DHT22;11653;50.848;4.584;2023-04-30T08:08:57;24.50;88.20
22974;DHT22;11653;50.848;4.584;2023-04-30T08:11:24;25.00;86.00
22974;DHT22;11653;50.848;4.584;2023-04-30T08:13:49;24.90;85.10
22974;DHT22;11653;50.848;4.584;2023-04-30T08:16:15;25.10;83.60
22974;DHT22;11653;50.848;4.584;2023-04-30T08:18:41;25.60;81.90
22974;DHT22;11653;50.848;4.584;2023-04-30T08:21:11;26.10;80.00
22974;DHT22;11653;50.848;4.584;2023-04-30T08:23:38;25.60;80.20
22974;DHT22;11653;50.848;4.584;2023-04-30T08:26:03;25.30;81.30
22974;DHT22;11653;50.848;4.584;2023-04-30T08:28:29;25.60;79.90
22974;DHT22;11653;50.848;4.584;2023-04-30T08:30:55;26.30;78.70
22974;DHT22;11653;50.848;4.584;2023-04-30T08:33:21;27.20;77.20
22974;DHT22;11653;50.848;4.584;2023-04-30T08:35:46;27.90;73.30
22974;DHT22;11653;50.848;4.584;2023-04-30T08:38:12;27.50;71.80
22974;DHT22;11653;50.848;4.584;2023-04-30T08:40:39;27.40;72.40
22974;DHT22;11653;50.848;4.584;2023-04-30T08:43:07;27.70;71.60
22974;DHT22;11653;50.848;4.584;2023-04-30T08:45:34;27.60;70.50
22974;DHT22;11653;50.848;4.584;2023-04-30T08:48:02;28.20;71.20
22974;DHT22;11653;50.848;4.584;2023-04-30T08:50:29;28.80;68.40
22974;DHT22;11653;50.848;4.584;2023-04-30T08:52:57;29.40;65.00
22974;DHT22;11653;50.848;4.584;2023-04-30T08:55:25;29.30;63.70
22974;DHT22;11653;50.848;4.584;2023-04-30T08:57:51;29.00;63.80
22974;DHT22;11653;50.848;4.584;2023-04-30T09:00:17;28.30;64.70
22974;DHT22;11653;50.848;4.584;2023-04-30T09:02:43;27.80;65.00
22974;DHT22;11653;50.848;4.584;2023-04-30T09:05:13;26.30;67.70
22974;DHT22;11653;50.848;4.584;2023-04-30T09:07:40;25.20;67.80
22974;DHT22;11653;50.848;4.584;2023-04-30T09:10:20;24.50;71.70
22974;DHT22;11653;50.848;4.584;2023-04-30T09:13:03;24.70;71.50
22974;DHT22;11653;50.848;4.584;2023-04-30T09:15:30;24.90;70.10
22974;DHT22;11653;50.848;4.584;2023-04-30T09:18:14;25.30;68.70
22974;DHT22;11653;50.848;4.584;2023-04-30T09:21:01;24.80;70.60
22974;DHT22;11653;50.848;4.584;2023-04-30T09:23:28;24.70;70.70
22974;DHT22;11653;50.848;4.584;2023-04-30T09:25:54;24.60;69.90
22974;DHT22;11653;50.848;4.584;2023-04-30T09:28:21;24.00;73.30
22974;DHT22;11653;50.848;4.584;2023-04-30T09:30:52;23.60;72.90
22974;DHT22;11653;50.848;4.584;2023-04-30T09:33:17;24.10;72.60
22974;DHT22;11653;50.848;4.584;2023-04-30T09:35:44;24.40;71.30
22974;DHT22;11653;50.848;4.584;2023-04-30T09:38:27;23.10;72.00
22974;DHT22;11653;50.848;4.584;2023-04-30T09:40:53;22.70;74.00
22974;DHT22;11653;50.848;4.584;2023-04-30T09:43:18;22.90;72.90
22974;DHT22;11653;50.848;4.584;2023-04-30T09:45:48;22.60;75.50
22974;DHT22;11653;50.848;4.584;2023-04-30T09:48:24;23.50;72.10
22974;DHT22;11653;50.848;4.584;2023-04-30T09:50:50;23.70;70.70
22974;DHT22;11653;50.848;4.584;2023-04-30T09:53:16;24.30;70.90
22974;DHT22;11653;50.848;4.584;2023-04-30T09:55:44;24.30;69.20
22974;DHT22;11653;50.848;4.584;2023-04-30T09:58:11;24.00;70.40
22974;DHT22;11653;50.848;4.584;2023-04-30T10:00:38;24.70;68.10
22974;DHT22;11653;50.848;4.584;2023-04-30T10:03:09;25.20;67.10
22974;DHT22;11653;50.848;4.584;2023-04-30T10:05:42;25.70;65.60
22974;DHT22;11653;50.848;4.584;2023-04-30T10:08:18;26.20;62.40
22974;DHT22;11653;50.848;4.584;2023-04-30T10:10:49;26.00;61.30
22974;DHT22;11653;50.848;4.584;2023-04-30T10:13:19;25.10;64.30
22974;DHT22;11653;50.848;4.584;2023-04-30T10:15:50;25.00;67.50
22974;DHT22;11653;50.848;4.584;2023-04-30T10:18:22;24.40;65.50
22974;DHT22;11653;50.848;4.584;2023-04-30T10:20:53;24.70;67.00
22974;DHT22;11653;50.848;4.584;2023-04-30T10:23:20;25.60;64.30
22974;DHT22;11653;50.848;4.584;2023-04-30T10:25:46;26.50;62.50
22974;DHT22;11653;50.848;4.584;2023-04-30T10:28:12;26.40;63.00
22974;DHT22;11653;50.848;4.584;2023-04-30T10:30:40;26.70;63.60
22974;DHT22;11653;50.848;4.584;2023-04-30T10:33:30;25.20;61.60
22974;DHT22;11653;50.848;4.584;2023-04-30T10:36:03;25.60;63.30
22974;DHT22;11653;50.848;4.584;2023-04-30T10:38:30;24.80;63.70
22974;DHT22;11653;50.848;4.584;2023-04-30T10:40:58;24.20;63.70
22974;DHT22;11653;50.848;4.584;2023-04-30T10:43:24;23.50;66.00
22974;DHT22;11653;50.848;4.584;2023-04-30T10:45:52;23.70;68.10
22974;DHT22;11653;50.848;4.584;2023-04-30T10:48:21;24.50;68.80
22974;DHT22;11653;50.848;4.584;2023-04-30T10:50:53;25.30;64.00
22974;DHT22;11653;50.848;4.584;2023-04-30T10:53:20;25.50;62.50
22974;DHT22;11653;50.848;4.584;2023-04-30T10:58:33;27.20;61.30
22974;DHT22;11653;50.848;4.584;2023-04-30T11:01:07;26.90;58.00
22974;DHT22;11653;50.848;4.584;2023-04-30T11:03:34;26.00;61.30
22974;DHT22;11653;50.848;4.584;2023-04-30T11:06:01;26.10;60.60
22974;DHT22;11653;50.848;4.584;2023-04-30T11:08:36;27.10;59.00
22974;DHT22;11653;50.848;4.584;2023-04-30T11:11:02;27.80;58.70
22974;DHT22;11653;50.848;4.584;2023-04-30T11:13:43;27.70;57.30
22974;DHT22;11653;50.848;4.584;2023-04-30T11:16:09;26.90;57.60
22974;DHT22;11653;50.848;4.584;2023-04-30T11:18:43;26.30;59.20
22974;DHT22;11653;50.848;4.584;2023-04-30T11:21:10;26.60;58.70
22974;DHT22;11653;50.848;4.584;2023-04-30T11:23:40;26.90;59.10
22974;DHT22;11653;50.848;4.584;2023-04-30T11:26:07;25.50;58.60
22974;DHT22;11653;50.848;4.584;2023-04-30T11:28:33;25.20;59.80
22974;DHT22;11653;50.848;4.584;2023-04-30T11:31:03;25.70;60.40
22974;DHT22;11653;50.848;4.584;2023-04-30T11:33:30;26.00;58.90
22974;DHT22;11653;50.848;4.584;2023-04-30T11:35:58;25.80;61.00
22974;DHT22;11653;50.848;4.584;2023-04-30T11:38:28;26.40;58.30
22974;DHT22;11653;50.848;4.584;2023-04-30T11:40:56;26.50;58.00
22974;DHT22;11653;50.848;4.584;2023-04-30T11:43:27;26.40;58.50
22974;DHT22;11653;50.848;4.584;2023-04-30T11:46:10;26.40;58.70
22974;DHT22;11653;50.848;4.584;2023-04-30T11:48:37;25.90;57.30
22974;DHT22;11653;50.848;4.584;2023-04-30T11:51:23;24.90;58.80
22974;DHT22;11653;50.848;4.584;2023-04-30T11:53:51;26.10;58.10
22974;DHT22;11653;50.848;4.584;2023-04-30T11:56:21;24.60;60.40
22974;DHT22;11653;50.848;4.584;2023-04-30T11:58:50;24.00;62.30
22974;DHT22;11653;50.848;4.584;2023-04-30T12:01:16;24.30;61.40
22974;DHT22;11653;50.848;4.584;2023-04-30T12:03:48;24.90;60.60
22974;DHT22;11653;50.848;4.584;2023-04-30T12:06:21;25.80;58.70
22974;DHT22;11653;50.848;4.584;2023-04-30T12:08:47;26.10;57.60
22974;DHT22;11653;50.848;4.584;2023-04-30T12:11:27;26.30;56.20
22974;DHT22;11653;50.848;4.584;2023-04-30T12:14:06;26.20;57.70
22974;DHT22;11653;50.848;4.584;2023-04-30T12:16:51;24.90;59.50
22974;DHT22;11653;50.848;4.584;2023-04-30T12:19:19;24.20;59.60
22974;DHT22;11653;50.848;4.584;2023-04-30T12:21:46;23.90;61.90
22974;DHT22;11653;50.848;4.584;2023-04-30T12:24:17;24.20;61.80
22974;DHT22;11653;50.848;4.584;2023-04-30T12:26:44;23.70;61.80
22974;DHT22;11653;50.848;4.584;2023-04-30T12:29:14;23.10;62.50
22974;DHT22;11653;50.848;4.584;2023-04-30T12:31:40;22.60;62.60
22974;DHT22;11653;50.848;4.584;2023-04-30T12:34:08;22.20;65.00
22974;DHT22;11653;50.848;4.584;2023-04-30T12:36:34;21.50;67.50
22974;DHT22;11653;50.848;4.584;2023-04-30T12:39:06;21.20;68.00
22974;DHT22;11653;50.848;4.584;2023-04-30T12:41:41;21.20;68.00
22974;DHT22;11653;50.848;4.584;2023-04-30T12:44:23;20.70;67.50
22974;DHT22;11653;50.848;4.584;2023-04-30T12:46:53;20.70;70.40
22974;DHT22;11653;50.848;4.584;2023-04-30T12:49:33;20.90;70.00
22974;DHT22;11653;50.848;4.584;2023-04-30T12:52:01;20.90;71.10
22974;DHT22;11653;50.848;4.584;2023-04-30T12:54:28;20.90;71.00
22974;DHT22;11653;50.848;4.584;2023-04-30T12:56:59;20.70;69.50
22974;DHT22;11653;50.848;4.584;2023-04-30T12:59:33;20.50;67.80
22974;DHT22;11653;50.848;4.584;2023-04-30T13:02:09;20.70;69.80
22974;DHT22;11653;50.848;4.584;2023-04-30T13:04:36;20.10;72.00
22974;DHT22;11653;50.848;4.584;2023-04-30T13:07:03;20.20;73.00
22974;DHT22;11653;50.848;4.584;2023-04-30T13:09:30;20.30;71.50
22974;DHT22;11653;50.848;4.584;2023-04-30T13:11:56;20.30;71.00
22974;DHT22;11653;50.848;4.584;2023-04-30T13:14:21;20.50;71.10
22974;DHT22;11653;50.848;4.584;2023-04-30T13:16:47;20.60;71.00
22974;DHT22;11653;50.848;4.584;2023-04-30T13:19:13;20.40;71.70
22974;DHT22;11653;50.848;4.584;2023-04-30T13:21:39;20.20;70.40
22974;DHT22;11653;50.848;4.584;2023-04-30T13:24:05;19.80;72.30
22974;DHT22;11653;50.848;4.584;2023-04-30T13:26:31;19.70;73.40
22974;DHT22;11653;50.848;4.584;2023-04-30T13:28:57;19.70;73.40
22974;DHT22;11653;50.848;4.584;2023-04-30T13:31:22;19.50;73.60
22974;DHT22;11653;50.848;4.584;2023-04-30T13:33:48;19.60;74.90
22974;DHT22;11653;50.848;4.584;2023-04-30T13:36:14;19.70;74.90
22974;DHT22;11653;50.848;4.584;2023-04-30T13:38:40;19.70;72.90
22974;DHT22;11653;50.848;4.584;2023-04-30T13:41:06;20.00;74.70
22974;DHT22;11653;50.848;4.584;2023-04-30T13:43:32;20.20;75.80
22974;DHT22;11653;50.848;4.584;2023-04-30T13:45:57;19.90;72.80
22974;DHT22;11653;50.848;4.584;2023-04-30T13:48:24;19.90;73.60
22974;DHT22;11653;50.848;4.584;2023-04-30T13:50:51;19.90;72.50
22974;DHT22;11653;50.848;4.584;2023-04-30T13:53:17;19.80;71.60
22974;DHT22;11653;50.848;4.584;2023-04-30T13:55:42;19.90;72.30
22974;DHT22;11653;50.848;4.584;2023-04-30T13:58:08;20.20;72.80
22974;DHT22;11653;50.848;4.584;2023-04-30T14:00:34;20.10;70.40
22974;DHT22;11653;50.848;4.584;2023-04-30T14:02:59;20.00;72.90
22974;DHT22;11653;50.848;4.584;2023-04-30T14:05:26;19.90;70.80
22974;DHT22;11653;50.848;4.584;2023-04-30T14:07:51;20.00;71.90
22974;DHT22;11653;50.848;4.584;2023-04-30T14:10:17;20.10;72.30
22974;DHT22;11653;50.848;4.584;2023-04-30T14:12:43;19.90;73.50
22974;DHT22;11653;50.848;4.584;2023-04-30T14:15:10;20.00;73.70
22974;DHT22;11653;50.848;4.584;2023-04-30T14:17:35;20.30;73.10
22974;DHT22;11653;50.848;4.584;2023-04-30T14:20:04;20.80;71.80
22974;DHT22;11653;50.848;4.584;2023-04-30T14:22:29;20.80;71.40
22974;DHT22;11653;50.848;4.584;2023-04-30T14:24:58;20.60;70.10
22974;DHT22;11653;50.848;4.584;2023-04-30T14:27:24;20.30;72.30
22974;DHT22;11653;50.848;4.584;2023-04-30T14:29:50;20.20;70.80
22974;DHT22;11653;50.848;4.584;2023-04-30T14:32:16;20.30;71.00
22974;DHT22;11653;50.848;4.584;2023-04-30T14:34:41;20.20;69.60
22974;DHT22;11653;50.848;4.584;2023-04-30T14:37:07;20.10;70.20
22974;DHT22;11653;50.848;4.584;2023-04-30T14:39:33;20.10;71.10
22974;DHT22;11653;50.848;4.584;2023-04-30T14:41:59;20.30;72.00
22974;DHT22;11653;50.848;4.584;2023-04-30T14:44:26;20.50;72.40
22974;DHT22;11653;50.848;4.584;2023-04-30T14:46:51;20.50;70.80
22974;DHT22;11653;50.848;4.584;2023-04-30T14:49:17;20.30;69.80
22974;DHT22;11653;50.848;4.584;2023-04-30T14:51:43;19.90;71.30
22974;DHT22;11653;50.848;4.584;2023-04-30T14:54:08;20.20;70.70
22974;DHT22;11653;50.848;4.584;2023-04-30T14:56:35;20.40;70.20
22974;DHT22;11653;50.848;4.584;2023-04-30T14:59:00;20.80;68.50
22974;DHT22;11653;50.848;4.584;2023-04-30T15:01:26;21.00;69.10
22974;DHT22;11653;50.848;4.584;2023-04-30T15:03:52;21.00;69.70
22974;DHT22;11653;50.848;4.584;2023-04-30T15:06:18;20.90;68.80
22974;DHT22;11653;50.848;4.584;2023-04-30T15:08:44;20.60;70.80
22974;DHT22;11653;50.848;4.584;2023-04-30T15:11:09;20.60;70.50
22974;DHT22;11653;50.848;4.584;2023-04-30T15:13:37;20.40;70.30
22974;DHT22;11653;50.848;4.584;2023-04-30T15:16:03;20.40;71.20
22974;DHT22;11653;50.848;4.584;2023-04-30T15:18:29;20.30;70.10
22974;DHT22;11653;50.848;4.584;2023-04-30T15:20:56;20.00;70.50
22974;DHT22;11653;50.848;4.584;2023-04-30T15:23:21;19.80;72.50
22974;DHT22;11653;50.848;4.584;2023-04-30T15:25:47;19.70;73.20
22974;DHT22;11653;50.848;4.584;2023-04-30T15:28:13;19.80;72.40
22974;DHT22;11653;50.848;4.584;2023-04-30T15:30:39;19.90;72.00
22974;DHT22;11653;50.848;4.584;2023-04-30T15:33:05;20.10;71.50
22974;DHT22;11653;50.848;4.584;2023-04-30T15:35:30;19.90;71.90
22974;DHT22;11653;50.848;4.584;2023-04-30T15:37:56;19.80;70.20
22974;DHT22;11653;50.848;4.584;2023-04-30T15:40:22;19.80;70.70
22974;DHT22;11653;50.848;4.584;2023-04-30T15:42:48;20.00;70.00
22974;DHT22;11653;50.848;4.584;2023-04-30T15:45:14;20.10;73.30
22974;DHT22;11653;50.848;4.584;2023-04-30T15:47:44;20.30;70.80
22974;DHT22;11653;50.848;4.584;2023-04-30T15:50:14;20.60;69.30
22974;DHT22;11653;50.848;4.584;2023-04-30T15:52:40;20.80;68.80
22974;DHT22;11653;50.848;4.584;2023-04-30T15:55:07;20.90;70.70